Time;durP1;ratioP1;P1;durP2;ratioP2;P2;SDS_P1;SDS_P2;PMS_P1;PMS_P2;Temp;Humidity;BMP_temperature;BMP_pressure;BME280_temperature;BME280_humidity;BME280_pressure;Samples;Min_cycle;Max_cycle;Signal;HPM_P1;HPM_P2
2022/11/04 00:00:22;;;;;;;1.10;1.00;;;13.60;99.90;;;;;;2070528;28;20084;-70
2022/11/04 00:01:23;;;;;;;1.50;1.20;;;13.60;99.90;;;;;;2071733;28;20037;-70
2022/11/04 00:02:24;;;;;;;1.25;1.00;;;13.60;99.90;;;;;;2071920;28;20649;-70
2022/11/04 00:03:24;;;;;;;2.22;0.95;;;13.60;99.90;;;;;;2068661;28;20557;-70
2022/11/04 00:04:27;;;;;;;1.40;1.30;;;13.60;99.90;;;;;;2071394;28;20018;-70
2022/11/04 00:05:27;;;;;;;1.73;1.35;;;13.60;99.90;;;;;;2071403;28;20390;-70
2022/11/04 00:06:28;;;;;;;1.60;1.00;;;13.60;99.90;;;;;;2070816;28;20026;-70
2022/11/04 00:08:52;;;;;;;1.58;0.93;;;13.60;99.90;;;;;;2072414;28;20037;-70
2022/11/04 00:09:53;;;;;;;0.77;0.77;;;13.60;99.90;;;;;;2070476;28;20036;-70
2022/11/04 00:12:26;;;;;;;1.02;0.90;;;13.60;99.90;;;;;;2069246;28;20030;-70
2022/11/04 00:13:29;;;;;;;0.70;0.70;;;13.60;99.90;;;;;;2071951;28;20018;-70
2022/11/04 00:14:31;;;;;;;1.23;0.90;;;13.50;99.90;;;;;;2068504;28;20036;-70
2022/11/04 00:18:15;;;;;;;0.80;0.80;;;13.50;99.90;;;;;;2071217;28;20026;-70
2022/11/04 00:19:16;;;;;;;1.20;1.05;;;13.50;99.90;;;;;;2070925;28;20053;-70
2022/11/04 00:29:35;;;;;;;1.15;1.05;;;13.30;99.90;;;;;;2071333;28;20034;-70
2022/11/04 00:30:36;;;;;;;1.40;1.30;;;13.30;99.90;;;;;;2070083;28;20018;-70
2022/11/04 00:34:15;;;;;;;1.50;1.17;;;13.30;99.90;;;;;;2071043;28;20064;-70
2022/11/04 00:35:15;;;;;;;1.25;1.15;;;13.20;99.90;;;;;;2069530;28;20023;-70
2022/11/04 00:36:16;;;;;;;1.08;1.00;;;13.30;99.90;;;;;;2070687;28;20033;-70
2022/11/04 00:37:16;;;;;;;1.48;1.10;;;13.30;99.90;;;;;;2070982;28;20478;-70
2022/11/04 00:38:17;;;;;;;1.02;0.93;;;13.20;99.90;;;;;;2071208;28;20573;-70
2022/11/04 00:39:18;;;;;;;1.27;1.10;;;13.20;99.90;;;;;;2071693;28;20093;-70
2022/11/04 00:40:18;;;;;;;1.00;0.90;;;13.20;99.90;;;;;;2070229;28;20950;-70
2022/11/04 00:41:26;;;;;;;2.42;1.10;;;13.20;99.90;;;;;;2072110;28;20026;-70
2022/11/04 00:42:26;;;;;;;1.35;1.05;;;13.20;99.90;;;;;;2071389;28;20029;-70
2022/11/04 00:43:27;;;;;;;1.95;1.20;;;13.20;99.90;;;;;;2068938;28;20029;-70
2022/11/04 00:44:27;;;;;;;0.73;0.73;;;13.20;99.90;;;;;;2070532;28;20026;-70
2022/11/04 00:45:28;;;;;;;1.58;1.15;;;13.20;99.90;;;;;;2069773;28;20608;-70
2022/11/04 00:46:30;;;;;;;1.10;1.00;;;13.20;99.90;;;;;;2069375;28;20022;-70
2022/11/04 00:47:31;;;;;;;1.10;1.00;;;13.20;99.90;;;;;;2070372;28;20030;-70
2022/11/04 00:48:32;;;;;;;1.35;1.25;;;13.20;99.90;;;;;;2070337;28;20037;-70
2022/11/04 00:49:32;;;;;;;1.45;0.90;;;13.20;99.90;;;;;;2070408;28;20029;-70
2022/11/04 00:50:33;;;;;;;1.00;0.90;;;13.20;99.90;;;;;;2070574;28;20034;-70
2022/11/04 00:51:33;;;;;;;1.08;0.90;;;13.20;99.90;;;;;;2069283;28;20026;-70
2022/11/04 00:52:34;;;;;;;1.13;1.02;;;13.20;99.90;;;;;;2070399;28;20021;-70
2022/11/04 00:53:35;;;;;;;1.10;0.90;;;13.20;99.90;;;;;;2071196;28;20017;-70
2022/11/04 00:54:35;;;;;;;1.13;1.00;;;13.20;99.90;;;;;;2071101;28;20021;-70
2022/11/04 00:55:36;;;;;;;1.38;1.10;;;13.20;99.90;;;;;;2068220;28;20026;-70
2022/11/04 00:56:37;;;;;;;1.33;0.88;;;13.20;99.90;;;;;;2068970;28;20030;-70
2022/11/04 00:57:37;;;;;;;2.35;0.90;;;13.20;99.90;;;;;;2070479;28;20115;-70
2022/11/04 00:58:39;;;;;;;1.05;1.00;;;13.20;99.90;;;;;;2070580;28;20103;-70
2022/11/04 00:59:40;;;;;;;2.17;1.05;;;13.10;99.90;;;;;;2070392;28;20121;-70
2022/11/04 01:00:40;;;;;;;2.10;1.00;;;13.20;99.90;;;;;;2070652;28;20473;-70
2022/11/04 01:01:41;;;;;;;1.75;0.93;;;13.20;99.90;;;;;;2071268;28;20026;-70
2022/11/04 01:02:41;;;;;;;4.00;1.00;;;13.10;99.90;;;;;;2071726;28;20029;-70
2022/11/04 01:03:50;;;;;;;1.25;1.15;;;13.10;99.90;;;;;;2069362;28;20038;-70
2022/11/04 01:04:50;;;;;;;1.23;0.80;;;13.10;99.90;;;;;;2068830;28;20042;-70
2022/11/04 01:05:51;;;;;;;1.20;1.00;;;13.10;99.90;;;;;;2070342;28;20026;-70
2022/11/04 01:06:51;;;;;;;1.00;1.00;;;13.10;99.90;;;;;;2070908;28;20496;-70
2022/11/04 01:07:52;;;;;;;1.35;1.00;;;13.10;99.90;;;;;;2071299;28;20033;-70
2022/11/04 01:08:57;;;;;;;0.73;0.73;;;13.10;99.90;;;;;;2069824;28;20036;-70
2022/11/04 01:09:58;;;;;;;1.08;0.98;;;13.10;99.90;;;;;;2069317;28;20026;-70
2022/11/04 01:11:09;;;;;;;1.50;1.00;;;13.10;99.90;;;;;;2072230;28;20033;-70
2022/11/04 01:12:10;;;;;;;1.60;1.08;;;13.10;99.90;;;;;;2070410;28;20054;-70
2022/11/04 01:13:11;;;;;;;1.17;0.90;;;13.00;99.90;;;;;;2069415;28;20022;-70
2022/11/04 01:14:12;;;;;;;1.80;1.45;;;13.10;99.90;;;;;;2071362;28;20022;-70
2022/11/04 01:15:12;;;;;;;3.00;0.98;;;13.10;99.90;;;;;;2071511;28;20032;-70
2022/11/04 01:16:13;;;;;;;1.30;1.08;;;13.10;99.90;;;;;;2068087;28;20022;-70
2022/11/04 01:17:14;;;;;;;1.55;1.45;;;13.00;99.90;;;;;;2070255;28;20095;-70
2022/11/04 01:18:14;;;;;;;1.38;1.20;;;13.10;99.90;;;;;;2069138;28;20056;-70
2022/11/04 01:19:16;;;;;;;1.00;0.98;;;13.00;99.90;;;;;;2071461;28;20454;-70
2022/11/04 01:20:16;;;;;;;2.25;1.50;;;13.10;99.90;;;;;;2072959;28;20034;-70
2022/11/04 01:21:17;;;;;;;1.30;1.20;;;13.10;99.90;;;;;;2071794;28;20030;-70
2022/11/04 01:22:17;;;;;;;2.85;1.40;;;13.00;99.90;;;;;;2080246;28;20037;-70
2022/11/04 01:23:18;;;;;;;1.10;1.10;;;13.00;99.90;;;;;;2070510;28;20025;-70
2022/11/04 01:24:18;;;;;;;4.57;1.30;;;13.00;99.90;;;;;;2069170;28;20029;-70
2022/11/04 01:25:19;;;;;;;1.45;1.35;;;13.00;99.90;;;;;;2071450;28;20105;-70
2022/11/04 01:26:22;;;;;;;1.88;1.50;;;13.00;99.90;;;;;;2070344;28;20026;-70
2022/11/04 01:27:22;;;;;;;2.03;1.50;;;13.00;99.90;;;;;;2069264;28;20088;-70
2022/11/04 01:28:23;;;;;;;1.50;1.40;;;13.00;99.90;;;;;;2070798;28;20054;-70
2022/11/04 01:29:24;;;;;;;2.80;1.70;;;13.00;99.90;;;;;;2068970;28;20037;-70
2022/11/04 01:30:24;;;;;;;1.88;1.70;;;13.00;99.90;;;;;;2071453;28;20164;-70
2022/11/04 01:31:27;;;;;;;2.33;1.60;;;13.00;99.90;;;;;;2069943;28;20044;-70
2022/11/04 01:32:27;;;;;;;2.05;1.55;;;13.00;99.90;;;;;;2070957;28;20677;-70
2022/11/04 01:33:28;;;;;;;2.42;1.50;;;13.00;99.90;;;;;;2070828;28;20096;-70
2022/11/04 01:34:29;;;;;;;2.05;1.67;;;13.00;99.90;;;;;;2069667;28;20107;-70
2022/11/04 01:35:30;;;;;;;1.95;1.67;;;13.00;99.90;;;;;;2069997;28;20083;-70
2022/11/04 01:36:31;;;;;;;1.80;1.70;;;13.00;99.90;;;;;;2070053;28;20022;-70
2022/11/04 01:37:31;;;;;;;1.83;1.70;;;13.00;99.90;;;;;;2070790;28;20034;-70
2022/11/04 01:38:32;;;;;;;7.55;2.15;;;13.00;99.90;;;;;;2069358;28;20125;-70
2022/11/04 01:39:33;;;;;;;3.20;2.30;;;13.00;99.90;;;;;;2069147;28;20231;-70
2022/11/04 01:40:38;;;;;;;1.88;1.70;;;13.00;99.90;;;;;;2069472;28;20081;-70
2022/11/04 01:41:39;;;;;;;2.92;2.00;;;13.00;99.90;;;;;;2070161;28;20021;-70
2022/11/04 01:42:40;;;;;;;2.40;1.83;;;13.00;99.90;;;;;;2070733;28;20022;-70
2022/11/04 01:43:44;;;;;;;2.00;1.90;;;12.90;99.90;;;;;;2069659;28;20022;-70
2022/11/04 01:44:50;;;;;;;1.90;1.80;;;12.90;99.90;;;;;;2069798;28;20425;-70
2022/11/04 01:45:57;;;;;;;2.30;1.90;;;12.90;99.90;;;;;;2068221;28;20112;-70
2022/11/04 01:46:58;;;;;;;2.50;1.77;;;12.90;99.90;;;;;;2067359;28;20049;-70
2022/11/04 01:48:04;;;;;;;2.88;1.98;;;12.90;99.90;;;;;;2069611;28;20116;-70
2022/11/04 01:49:27;;;;;;;2.40;1.83;;;12.90;99.90;;;;;;2072083;28;20038;-70
2022/11/04 01:50:31;;;;;;;4.35;2.33;;;12.90;99.90;;;;;;2060028;28;20149;-70
2022/11/04 01:51:36;;;;;;;4.72;1.85;;;12.90;99.90;;;;;;2070620;28;20068;-70
2022/11/04 01:52:50;;;;;;;2.65;2.17;;;12.90;99.90;;;;;;2070514;28;20029;-70
2022/11/04 01:53:54;;;;;;;2.38;2.20;;;12.90;99.90;;;;;;2070014;28;20037;-70
2022/11/04 01:54:58;;;;;;;2.47;2.20;;;12.90;99.90;;;;;;2070005;28;20493;-70
2022/11/04 01:56:03;;;;;;;2.90;2.00;;;12.90;99.90;;;;;;2068546;28;20053;-70
2022/11/04 01:57:07;;;;;;;3.53;2.33;;;12.90;99.90;;;;;;2070165;28;20029;-70
2022/11/04 01:58:16;;;;;;;3.10;2.30;;;12.90;99.90;;;;;;2069643;28;20033;-70
2022/11/04 01:59:24;;;;;;;2.88;2.40;;;12.90;99.90;;;;;;2069715;28;20057;-70
2022/11/04 02:00:24;;;;;;;2.33;2.13;;;12.90;99.90;;;;;;2069808;28;20032;-70
2022/11/04 02:01:25;;;;;;;5.25;2.45;;;12.90;99.90;;;;;;2071024;28;20036;-70
2022/11/04 02:02:25;;;;;;;2.33;2.13;;;12.90;99.90;;;;;;2071589;28;20030;-70
2022/11/04 02:03:32;;;;;;;4.63;2.50;;;12.90;99.90;;;;;;2069638;28;20030;-70
2022/11/04 02:04:34;;;;;;;2.13;2.00;;;12.80;99.90;;;;;;2069078;28;20025;-70
2022/11/04 02:05:36;;;;;;;2.38;2.17;;;12.80;99.90;;;;;;2069334;28;20037;-70
2022/11/04 02:06:36;;;;;;;4.75;2.83;;;12.80;99.90;;;;;;2069674;28;20035;-70
2022/11/04 02:07:37;;;;;;;4.28;2.50;;;12.80;99.90;;;;;;2069740;28;20085;-70
2022/11/04 02:08:39;;;;;;;2.50;2.30;;;12.80;99.90;;;;;;2069054;28;20026;-70
2022/11/04 02:09:41;;;;;;;2.17;2.00;;;12.80;99.90;;;;;;2069571;28;20046;-70
2022/11/04 02:10:53;;;;;;;7.00;2.38;;;12.80;99.90;;;;;;2069735;28;20508;-70
2022/11/04 02:13:13;;;;;;;2.88;2.33;;;12.80;99.90;;;;;;2070078;28;20029;-70
2022/11/04 02:14:14;;;;;;;3.78;2.17;;;12.80;99.90;;;;;;2070050;28;20022;-70
2022/11/04 02:15:25;;;;;;;2.50;2.30;;;12.80;99.90;;;;;;2070322;28;20034;-70
2022/11/04 02:16:44;;;;;;;2.40;2.15;;;12.80;99.90;;;;;;2069465;28;20112;-70
2022/11/04 02:17:59;;;;;;;4.93;2.42;;;12.80;99.90;;;;;;2068721;28;20081;-70
2022/11/04 02:19:03;;;;;;;2.80;2.33;;;12.80;99.90;;;;;;2070326;28;20029;-70
2022/11/04 02:20:41;;;;;;;3.95;2.50;;;12.70;99.90;;;;;;2070517;28;20058;-70
2022/11/04 02:22:10;;;;;;;2.25;2.00;;;12.70;99.90;;;;;;2067803;28;20104;-70
2022/11/04 02:23:28;;;;;;;3.60;2.15;;;12.70;99.90;;;;;;2070010;28;20604;-70
2022/11/04 02:24:45;;;;;;;3.40;2.60;;;12.70;99.90;;;;;;2069303;28;20036;-70
2022/11/04 02:25:52;;;;;;;3.45;2.28;;;12.70;99.90;;;;;;2068319;28;20034;-70
2022/11/04 02:27:20;;;;;;;3.00;1.83;;;12.70;99.90;;;;;;2070374;28;20038;-70
2022/11/04 02:28:38;;;;;;;3.58;2.10;;;12.70;99.90;;;;;;2069215;28;20033;-69
2022/11/04 02:29:48;;;;;;;4.85;2.45;;;12.70;99.90;;;;;;2070785;28;20137;-69
2022/11/04 02:30:54;;;;;;;4.50;2.45;;;12.70;99.90;;;;;;2067726;28;20025;-69
2022/11/04 02:32:03;;;;;;;3.40;1.60;;;12.70;99.90;;;;;;2069214;28;20552;-69
2022/11/04 02:33:22;;;;;;;4.22;1.70;;;12.70;99.90;;;;;;2068441;28;20034;-69
2022/11/04 02:34:51;;;;;;;2.78;2.08;;;12.70;99.90;;;;;;2068879;28;20522;-69
2022/11/04 02:36:09;;;;;;;3.90;1.92;;;12.70;99.90;;;;;;2071277;28;20040;-69
2022/11/04 02:37:43;;;;;;;4.55;1.85;;;12.70;99.90;;;;;;2070992;28;20026;-69
2022/11/04 02:38:53;;;;;;;4.53;2.40;;;12.60;99.90;;;;;;2069716;28;20030;-69
2022/11/04 02:39:56;;;;;;;4.55;1.88;;;12.60;99.90;;;;;;2069800;28;20034;-70
2022/11/04 02:40:57;;;;;;;2.83;1.80;;;12.60;99.90;;;;;;2069836;28;20026;-70
2022/11/04 02:42:21;;;;;;;3.25;1.95;;;12.60;99.90;;;;;;2069845;28;20033;-70
2022/11/04 02:43:52;;;;;;;4.32;2.10;;;12.60;99.90;;;;;;2068343;28;20040;-70
2022/11/04 02:45:08;;;;;;;7.75;2.38;;;12.60;99.90;;;;;;2063700;28;20088;-70
2022/11/04 02:46:15;;;;;;;3.40;2.10;;;12.60;99.90;;;;;;2068862;28;20044;-70
2022/11/04 02:47:22;;;;;;;3.55;2.15;;;12.60;99.90;;;;;;2070832;28;20049;-70
2022/11/04 02:48:43;;;;;;;4.88;2.80;;;12.60;99.90;;;;;;2068724;28;20428;-70
2022/11/04 02:50:01;;;;;;;4.50;2.35;;;12.60;99.90;;;;;;2068141;28;20018;-69
2022/11/04 02:51:30;;;;;;;4.93;2.40;;;12.60;99.90;;;;;;2069918;28;20045;-69
2022/11/04 02:52:46;;;;;;;6.53;2.75;;;12.60;99.90;;;;;;2068327;28;20030;-69
2022/11/04 02:54:03;;;;;;;3.85;2.50;;;12.60;99.90;;;;;;2069734;28;20054;-69
2022/11/04 02:55:09;;;;;;;5.20;2.50;;;12.60;99.90;;;;;;2069630;28;20461;-69
2022/11/04 02:56:11;;;;;;;5.88;2.95;;;12.60;99.90;;;;;;2070199;28;20037;-69
2022/11/04 02:57:20;;;;;;;4.38;2.70;;;12.60;99.90;;;;;;2070827;28;20026;-69
2022/11/04 02:58:29;;;;;;;6.78;2.50;;;12.60;99.90;;;;;;2069412;28;20030;-69
2022/11/04 02:59:40;;;;;;;8.27;2.63;;;12.60;99.90;;;;;;2070605;28;20030;-69
2022/11/04 03:00:43;;;;;;;5.28;2.60;;;12.60;99.90;;;;;;2069586;28;20438;-69
2022/11/04 03:01:45;;;;;;;5.88;2.47;;;12.60;99.90;;;;;;2071175;28;20080;-69
2022/11/04 03:02:55;;;;;;;7.38;2.72;;;12.60;99.90;;;;;;2069687;28;20029;-69
2022/11/04 03:04:03;;;;;;;3.55;2.65;;;12.60;99.90;;;;;;2070678;28;20473;-69
2022/11/04 03:05:07;;;;;;;6.57;2.47;;;12.60;99.90;;;;;;2069627;28;20485;-70
2022/11/04 03:06:09;;;;;;;4.53;2.17;;;12.50;99.90;;;;;;2069815;28;20022;-70
2022/11/04 03:07:13;;;;;;;3.90;2.00;;;12.60;99.90;;;;;;2069658;28;20034;-70
2022/11/04 03:08:37;;;;;;;4.47;2.55;;;12.50;99.90;;;;;;2071000;28;20033;-70
2022/11/04 03:09:43;;;;;;;6.32;2.50;;;12.50;99.90;;;;;;2069361;28;20025;-70
2022/11/04 03:10:50;;;;;;;5.88;2.30;;;12.50;99.90;;;;;;2062672;28;21311;-70
2022/11/04 03:11:56;;;;;;;5.68;2.15;;;12.60;99.90;;;;;;2069597;28;20457;-70
2022/11/04 03:13:23;;;;;;;4.90;2.33;;;12.60;99.90;;;;;;2068916;28;20080;-70
2022/11/04 03:14:30;;;;;;;3.75;2.15;;;12.60;99.90;;;;;;2070505;28;20679;-70
2022/11/04 03:15:34;;;;;;;5.93;2.20;;;12.50;99.90;;;;;;2069509;28;20041;-70
2022/11/04 03:16:38;;;;;;;6.40;2.60;;;12.50;99.90;;;;;;2069909;28;20477;-70
2022/11/04 03:18:02;;;;;;;5.72;2.40;;;12.50;99.90;;;;;;2068485;28;20084;-70
2022/11/04 03:19:27;;;;;;;6.10;2.67;;;12.50;99.90;;;;;;2072044;28;20995;-70
2022/11/04 03:20:30;;;;;;;4.85;2.05;;;12.50;99.90;;;;;;2073540;28;20660;-70
2022/11/04 03:21:35;;;;;;;7.03;2.97;;;12.50;99.90;;;;;;2070052;28;20032;-70
2022/11/04 03:22:36;;;;;;;3.25;1.88;;;12.50;99.90;;;;;;2068926;28;20124;-70
2022/11/04 03:23:38;;;;;;;3.80;1.92;;;12.50;99.90;;;;;;2068114;28;20116;-69
2022/11/04 03:24:40;;;;;;;5.00;1.90;;;12.40;99.90;;;;;;2069632;28;20514;-69
2022/11/04 03:25:44;;;;;;;4.40;1.90;;;12.50;99.90;;;;;;2070254;28;20441;-69
2022/11/04 03:26:58;;;;;;;6.63;2.28;;;12.50;99.90;;;;;;2070120;28;20034;-69
2022/11/04 03:28:42;;;;;;;5.82;2.33;;;12.50;99.90;;;;;;2068548;28;20076;-69
2022/11/04 03:29:55;;;;;;;5.50;1.95;;;12.40;99.90;;;;;;2061776;28;20046;-69
2022/11/04 03:31:00;;;;;;;3.97;2.25;;;12.40;99.90;;;;;;2062301;28;20034;-69
2022/11/04 03:32:10;;;;;;;6.85;2.13;;;12.40;99.90;;;;;;2069420;28;20036;-69
2022/11/04 03:33:29;;;;;;;;;;;12.30;99.90;;;;;;2068778;28;20053;-69
2022/11/04 03:34:30;;;;;;;3.95;1.77;;;12.30;99.90;;;;;;2069475;28;19923;-69
2022/11/04 03:35:31;;;;;;;5.53;2.13;;;12.20;99.90;;;;;;2069713;28;20109;-69
2022/11/04 03:36:32;;;;;;;3.40;2.28;;;12.20;99.90;;;;;;2068759;28;20463;-69
2022/11/04 03:37:33;;;;;;;6.85;1.90;;;12.20;99.90;;;;;;2068428;28;20728;-69
2022/11/04 03:38:35;;;;;;;5.43;2.38;;;12.20;99.90;;;;;;2069181;28;20030;-69
2022/11/04 03:39:36;;;;;;;3.42;2.40;;;12.20;99.90;;;;;;2070317;28;20087;-69
2022/11/04 03:40:36;;;;;;;5.40;2.10;;;12.20;99.90;;;;;;2068766;28;20030;-69
2022/11/04 03:41:48;;;;;;;10.23;2.00;;;12.20;99.90;;;;;;2069031;28;20022;-69
2022/11/04 03:42:57;;;;;;;5.38;2.38;;;12.20;99.90;;;;;;2069801;28;20026;-69
2022/11/04 03:43:57;;;;;;;5.32;1.80;;;12.20;99.90;;;;;;2069664;28;20030;-69
2022/11/04 03:44:59;;;;;;;6.22;2.17;;;12.20;99.90;;;;;;2069173;28;20105;-69
2022/11/04 03:45:59;;;;;;;4.10;2.10;;;12.20;99.90;;;;;;2070139;28;20041;-69
2022/11/04 03:47:00;;;;;;;5.65;2.13;;;12.20;99.90;;;;;;2069712;28;20534;-69
2022/11/04 03:48:01;;;;;;;6.30;2.17;;;12.20;99.90;;;;;;2067495;28;20030;-70
2022/11/04 03:49:02;;;;;;;6.68;1.98;;;12.20;99.90;;;;;;2068776;28;20038;-69
2022/11/04 03:50:11;;;;;;;9.50;2.00;;;12.20;99.90;;;;;;2070202;28;20022;-69
2022/11/04 03:51:12;;;;;;;4.72;1.75;;;12.20;99.90;;;;;;2069197;28;20120;-69
2022/11/04 03:52:13;;;;;;;6.72;2.30;;;12.10;99.90;;;;;;2069956;28;20034;-69
2022/11/04 03:53:25;;;;;;;5.18;1.95;;;12.10;99.90;;;;;;2068206;28;20033;-69
2022/11/04 03:54:26;;;;;;;6.55;1.73;;;12.10;99.90;;;;;;2068470;28;20418;-69
2022/11/04 03:55:52;;;;;;;5.63;2.38;;;12.10;99.90;;;;;;2069696;28;20064;-69
2022/11/04 03:57:07;;;;;;;9.93;2.63;;;12.10;99.90;;;;;;2068197;28;20026;-69
2022/11/04 03:58:24;;;;;;;7.15;1.70;;;12.10;99.90;;;;;;2067658;28;20482;-69
2022/11/04 03:59:52;;;;;;;6.72;1.77;;;12.10;99.90;;;;;;2068800;28;20601;-69
2022/11/04 04:01:01;;;;;;;4.65;1.48;;;12.00;99.90;;;;;;2069478;28;20062;-69
2022/11/04 04:02:13;;;;;;;4.38;2.40;;;12.00;99.90;;;;;;2069639;28;20032;-69
2022/11/04 04:03:20;;;;;;;8.00;1.70;;;12.00;99.90;;;;;;2069296;28;20073;-69
2022/11/04 04:04:35;;;;;;;5.32;1.88;;;12.00;99.90;;;;;;2068822;28;20105;-69
2022/11/04 04:06:01;;;;;;;6.72;2.70;;;12.00;99.90;;;;;;2070688;28;20113;-69
2022/11/04 04:07:09;;;;;;;9.18;2.45;;;12.00;99.90;;;;;;2069613;28;20107;-69
2022/11/04 04:08:17;;;;;;;5.07;1.80;;;12.00;99.90;;;;;;2069169;28;20109;-69
2022/11/04 04:09:22;;;;;;;5.25;1.75;;;11.90;99.90;;;;;;2068154;28;20382;-69
2022/11/04 04:10:53;;;;;;;4.68;1.70;;;11.90;99.90;;;;;;2069025;28;20065;-69
2022/11/04 04:12:19;;;;;;;3.97;1.80;;;11.90;99.90;;;;;;2069378;28;20544;-69
2022/11/04 04:13:47;;;;;;;6.10;1.60;;;11.90;99.90;;;;;;2068992;28;20482;-69
2022/11/04 04:14:51;;;;;;;4.63;1.75;;;11.80;99.90;;;;;;2068471;28;20105;-69
2022/11/04 04:16:10;;;;;;;6.30;1.58;;;11.80;99.90;;;;;;2067611;28;20064;-69
2022/11/04 04:17:20;;;;;;;11.07;2.17;;;11.80;99.90;;;;;;2069462;28;20030;-69
2022/11/04 04:18:41;;;;;;;5.28;1.60;;;11.80;99.90;;;;;;2068211;28;20025;-69
2022/11/04 04:19:50;;;;;;;4.72;1.58;;;11.80;99.90;;;;;;2068131;28;20030;-69
2022/11/04 04:20:53;;;;;;;4.53;2.03;;;11.80;99.90;;;;;;2069305;28;20470;-69
2022/11/04 04:22:01;;;;;;;5.90;1.95;;;11.80;99.90;;;;;;2069652;28;20096;-69
2022/11/04 04:27:29;;;;;;;5.10;2.15;;;11.80;99.90;;;;;;2068883;28;20026;-69
2022/11/04 04:27:32;;;;;;;5.80;2.10;;;11.70;99.90;;;;;;2067595;28;21047;-69
2022/11/04 04:28:33;;;;;;;8.13;2.88;;;11.70;99.90;;;;;;2070717;28;20219;-69
2022/11/04 04:29:35;;;;;;;6.82;2.20;;;11.70;99.90;;;;;;2070855;28;20398;-69
2022/11/04 04:30:36;;;;;;;6.35;2.38;;;11.70;99.90;;;;;;2068986;28;20564;-69
2022/11/04 04:31:48;;;;;;;9.48;2.83;;;11.80;99.90;;;;;;2068707;28;20513;-69
2022/11/04 04:32:57;;;;;;;6.63;2.13;;;11.80;99.90;;;;;;2069634;28;20034;-69
2022/11/04 04:33:58;;;;;;;6.03;2.75;;;11.70;99.90;;;;;;2068817;28;20026;-69
2022/11/04 04:36:18;;;;;;;5.05;1.90;;;11.70;99.90;;;;;;2069710;28;20034;-69
2022/11/04 04:37:22;;;;;;;5.35;1.70;;;11.70;99.90;;;;;;2070528;28;20022;-69
2022/11/04 04:44:58;;;;;;;7.03;2.00;;;11.70;99.90;;;;;;2067137;28;20042;-69
2022/11/04 04:45:52;;;;;;;11.63;2.10;;;11.70;99.90;;;;;;2070342;28;20049;-69
2022/11/04 04:46:54;;;;;;;6.00;2.08;;;11.60;99.90;;;;;;2069310;28;20048;-69
2022/11/04 04:47:55;;;;;;;5.03;2.08;;;11.70;99.90;;;;;;2067974;28;20023;-69
2022/11/04 04:49:06;;;;;;;12.57;2.20;;;11.70;99.90;;;;;;2069320;28;20031;-69
2022/11/04 04:50:09;;;;;;;7.30;2.20;;;11.70;99.90;;;;;;2072569;28;20466;-69
2022/11/04 04:51:09;;;;;;;6.75;1.92;;;11.70;99.90;;;;;;2069926;28;20033;-69
2022/11/04 04:52:10;;;;;;;5.70;1.80;;;11.70;99.90;;;;;;2070182;28;20026;-69
2022/11/04 04:53:11;;;;;;;8.75;2.40;;;11.70;99.90;;;;;;2069932;28;20117;-69
2022/11/04 04:54:12;;;;;;;6.20;1.40;;;11.70;99.90;;;;;;2070771;28;20116;-69
2022/11/04 04:55:13;;;;;;;7.18;2.00;;;11.70;99.90;;;;;;2071976;28;20026;-69
2022/11/04 04:56:13;;;;;;;5.78;1.88;;;11.70;99.90;;;;;;2070599;28;20516;-69
2022/11/04 04:57:14;;;;;;;8.07;1.95;;;11.70;99.90;;;;;;2069349;28;20377;-69
2022/11/04 04:58:15;;;;;;;2.85;1.45;;;11.70;99.90;;;;;;2071901;28;20022;-69
2022/11/04 04:59:15;;;;;;;6.50;2.08;;;11.70;99.90;;;;;;2071270;28;20030;-69
2022/11/04 05:00:19;;;;;;;8.00;1.88;;;11.60;99.90;;;;;;2071471;28;20030;-69
2022/11/04 05:01:20;;;;;;;6.75;2.10;;;11.70;99.90;;;;;;2068850;28;20034;-69
2022/11/04 05:02:21;;;;;;;6.70;1.83;;;11.60;99.90;;;;;;2068260;28;20486;-69
2022/11/04 05:03:23;;;;;;;8.70;2.33;;;11.60;99.90;;;;;;2070156;28;20026;-69
2022/11/04 05:04:24;;;;;;;8.07;2.30;;;11.60;99.90;;;;;;2071156;28;20022;-69
2022/11/04 05:05:24;;;;;;;10.35;2.47;;;11.60;99.90;;;;;;2070413;28;20034;-69
2022/11/04 05:06:25;;;;;;;8.38;2.47;;;11.70;99.90;;;;;;2070124;28;20132;-69
2022/11/04 05:07:26;;;;;;;4.50;1.50;;;11.60;99.90;;;;;;2071107;28;20429;-69
2022/11/04 05:08:26;;;;;;;6.90;2.00;;;11.60;99.90;;;;;;2070733;28;20030;-69
2022/11/04 05:09:27;;;;;;;7.72;2.22;;;11.60;99.90;;;;;;2071184;28;20024;-69
2022/11/04 05:10:27;;;;;;;5.57;1.70;;;11.60;99.90;;;;;;2068505;28;20037;-69
2022/11/04 05:11:29;;;;;;;5.50;2.20;;;11.60;99.90;;;;;;2069782;28;20125;-69
2022/11/04 05:13:24;;;;;;;5.60;1.88;;;11.60;99.90;;;;;;2070116;28;20120;-69
2022/11/04 05:13:50;;;;;;;5.82;1.65;;;11.60;99.90;;;;;;2071402;28;20121;-69
2022/11/04 05:14:50;;;;;;;5.40;1.88;;;11.60;99.90;;;;;;2070731;28;20026;-69
2022/11/04 05:15:52;;;;;;;8.75;2.15;;;11.60;99.90;;;;;;2070352;28;20129;-69
2022/11/04 05:16:52;;;;;;;5.32;1.95;;;11.60;99.90;;;;;;2069060;28;20034;-69
2022/11/04 05:17:58;;;;;;;6.20;1.70;;;11.60;99.90;;;;;;2067893;28;20045;-69
2022/11/04 05:18:58;;;;;;;6.07;2.38;;;11.60;99.90;;;;;;2070536;28;20053;-69
2022/11/04 05:19:59;;;;;;;8.15;1.98;;;11.60;99.90;;;;;;2070959;28;20022;-69
2022/11/04 05:21:04;;;;;;;6.70;2.00;;;11.60;99.90;;;;;;2070428;28;20048;-69
2022/11/04 05:22:04;;;;;;;6.13;1.80;;;11.60;99.90;;;;;;2070030;28;20692;-69
2022/11/04 05:23:06;;;;;;;5.35;1.90;;;11.60;99.90;;;;;;2068100;28;20037;-69
2022/11/04 05:24:06;;;;;;;9.07;2.30;;;11.60;99.90;;;;;;2069132;28;20041;-69
2022/11/04 05:25:07;;;;;;;7.22;1.90;;;11.60;99.90;;;;;;2069590;28;20509;-70
2022/11/04 05:26:08;;;;;;;9.52;1.92;;;11.50;99.90;;;;;;2070334;28;20036;-70
2022/11/04 05:27:08;;;;;;;7.43;2.13;;;11.60;99.90;;;;;;2071276;28;20088;-69
2022/11/04 05:28:09;;;;;;;9.93;2.38;;;11.60;99.90;;;;;;2077487;28;20033;-69
2022/11/04 05:29:11;;;;;;;7.10;2.20;;;11.60;99.90;;;;;;2076110;28;20100;-69
2022/11/04 05:30:11;;;;;;;4.93;2.03;;;11.60;99.90;;;;;;2070064;28;20021;-69
2022/11/04 05:31:12;;;;;;;7.60;2.05;;;11.60;99.90;;;;;;2068983;28;20113;-69
2022/11/04 05:32:13;;;;;;;7.40;2.40;;;11.60;99.90;;;;;;2070214;28;20092;-69
2022/11/04 05:33:13;;;;;;;4.55;1.60;;;11.60;99.90;;;;;;2071104;28;20017;-69
2022/11/04 05:34:14;;;;;;;5.97;1.88;;;11.60;99.90;;;;;;2070333;28;20018;-69
2022/11/04 05:35:14;;;;;;;8.43;1.95;;;11.60;99.90;;;;;;2071090;28;20029;-69
2022/11/04 05:36:16;;;;;;;8.50;2.55;;;11.60;99.90;;;;;;2070655;28;20022;-69
2022/11/04 05:37:16;;;;;;;10.23;2.40;;;11.60;99.90;;;;;;2068751;28;20026;-69
2022/11/04 05:38:17;;;;;;;7.25;1.85;;;11.60;99.90;;;;;;2070500;28;20025;-69
2022/11/04 05:39:17;;;;;;;7.00;2.05;;;11.60;99.90;;;;;;2071260;28;20032;-70
2022/11/04 05:40:18;;;;;;;9.20;2.35;;;11.60;99.90;;;;;;2070039;28;20056;-69
2022/11/04 05:41:24;;;;;;;6.63;2.17;;;11.60;99.90;;;;;;2071785;28;20025;-70
2022/11/04 05:42:25;;;;;;;6.63;2.25;;;11.60;99.90;;;;;;2070693;28;20493;-70
2022/11/04 05:43:26;;;;;;;10.27;2.20;;;11.60;99.90;;;;;;2070523;28;20433;-69
2022/11/04 05:44:26;;;;;;;7.55;1.70;;;11.60;99.90;;;;;;2077951;28;20022;-69
2022/11/04 05:45:27;;;;;;;9.38;2.13;;;11.60;99.90;;;;;;2077611;28;20053;-69
2022/11/04 05:46:29;;;;;;;9.93;2.47;;;11.60;99.90;;;;;;2070337;28;20030;-69
2022/11/04 05:47:29;;;;;;;6.10;1.77;;;11.60;99.90;;;;;;2077159;28;20080;-69
2022/11/04 05:48:30;;;;;;;6.40;2.05;;;11.60;99.90;;;;;;2077602;28;20033;-69
2022/11/04 05:49:30;;;;;;;7.57;2.22;;;11.60;99.90;;;;;;2069585;28;20394;-69
2022/11/04 05:50:33;;;;;;;13.70;2.60;;;11.60;99.90;;;;;;2070073;28;20018;-69
2022/11/04 05:51:33;;;;;;;6.07;2.13;;;11.60;99.90;;;;;;2069101;28;20574;-69
2022/11/04 05:52:34;;;;;;;5.65;1.95;;;11.70;99.90;;;;;;2069951;28;20528;-69
2022/11/04 05:53:34;;;;;;;6.40;2.00;;;11.70;99.90;;;;;;2070649;28;20021;-69
2022/11/04 05:54:38;;;;;;;9.07;2.78;;;11.70;99.90;;;;;;2070070;28;20494;-69
2022/11/04 05:55:38;;;;;;;7.72;2.28;;;11.70;99.90;;;;;;2069474;28;20041;-69
2022/11/04 05:56:39;;;;;;;5.65;1.90;;;11.70;99.90;;;;;;2068860;28;20022;-69
2022/11/04 05:57:39;;;;;;;7.80;2.13;;;11.70;99.90;;;;;;2069445;28;20038;-69
2022/11/04 05:58:40;;;;;;;4.95;1.90;;;11.70;99.90;;;;;;2069472;28;20148;-69
2022/11/04 05:59:40;;;;;;;5.60;2.17;;;11.70;99.90;;;;;;2070246;28;20033;-69
2022/11/04 06:00:41;;;;;;;9.80;2.35;;;11.70;99.90;;;;;;2070698;28;20026;-69
2022/11/04 06:01:42;;;;;;;15.02;2.22;;;11.70;99.90;;;;;;2070273;28;20021;-69
2022/11/04 06:02:43;;;;;;;6.03;1.85;;;11.70;99.90;;;;;;2070294;28;20117;-69
2022/11/04 06:03:43;;;;;;;5.10;1.90;;;11.70;99.90;;;;;;2069995;28;20037;-69
2022/11/04 06:04:44;;;;;;;6.13;2.20;;;11.70;99.90;;;;;;2067492;28;20022;-69
2022/11/04 06:05:44;;;;;;;8.02;2.17;;;11.80;99.90;;;;;;2070156;28;20057;-69
2022/11/04 06:06:45;;;;;;;10.05;2.53;;;11.80;99.90;;;;;;2069806;28;20088;-69
2022/11/04 06:07:45;;;;;;;6.60;1.83;;;11.80;99.90;;;;;;2070365;28;20030;-69
2022/11/04 06:08:46;;;;;;;8.75;2.75;;;11.80;99.90;;;;;;2070156;28;20476;-69
2022/11/04 06:09:46;;;;;;;6.65;2.15;;;11.80;99.90;;;;;;2070179;28;20026;-69